sensor_id;sensor_type;location;lat;lon;timestamp;P1;durP1;ratioP1;P2;durP2;ratioP2
38557;SDS011;24333;42.626;23.308;2022-08-02T00:08:38;3.67;;;2.10;;
38557;SDS011;24333;42.626;23.308;2022-08-02T00:11:17;3.03;;;2.10;;
38557;SDS011;24333;42.626;23.308;2022-08-02T01:19:50;4.68;;;1.88;;
38557;SDS011;24333;42.626;23.308;2022-08-02T01:28:49;3.30;;;1.95;;
38557;SDS011;24333;42.626;23.308;2022-08-02T01:31:32;2.80;;;2.20;;
38557;SDS011;24333;42.626;23.308;2022-08-02T01:34:10;2.92;;;1.95;;
38557;SDS011;24333;42.626;23.308;2022-08-02T01:37:00;4.32;;;2.05;;
38557;SDS011;24333;42.626;23.308;2022-08-02T01:39:45;6.57;;;2.20;;
38557;SDS011;24333;42.626;23.308;2022-08-02T02:00:19;6.28;;;2.65;;
38557;SDS011;24333;42.626;23.308;2022-08-02T02:02:56;4.85;;;2.92;;
38557;SDS011;24333;42.626;23.308;2022-08-02T02:05:24;7.40;;;2.35;;
38557;SDS011;24333;42.626;23.308;2022-08-02T02:07:57;3.50;;;2.40;;
38557;SDS011;24333;42.626;23.308;2022-08-02T02:28:39;4.50;;;2.67;;
38557;SDS011;24333;42.626;23.308;2022-08-02T02:31:10;5.28;;;2.50;;
38557;SDS011;24333;42.626;23.308;2022-08-02T02:33:46;5.53;;;2.70;;
38557;SDS011;24333;42.626;23.308;2022-08-02T02:36:26;5.25;;;2.53;;
38557;SDS011;24333;42.626;23.308;2022-08-02T02:38:54;4.00;;;2.42;;
38557;SDS011;24333;42.626;23.308;2022-08-02T03:36:11;3.40;;;2.10;;
38557;SDS011;24333;42.626;23.308;2022-08-02T03:38:48;3.85;;;2.45;;
38557;SDS011;24333;42.626;23.308;2022-08-02T03:44:19;4.63;;;2.60;;
38557;SDS011;24333;42.626;23.308;2022-08-02T03:57:13;8.65;;;3.47;;
38557;SDS011;24333;42.626;23.308;2022-08-02T03:59:40;6.15;;;2.90;;
38557;SDS011;24333;42.626;23.308;2022-08-02T04:02:22;6.40;;;3.10;;
38557;SDS011;24333;42.626;23.308;2022-08-02T04:04:47;10.80;;;3.10;;
38557;SDS011;24333;42.626;23.308;2022-08-02T04:07:14;7.05;;;3.47;;
38557;SDS011;24333;42.626;23.308;2022-08-02T04:12:48;5.07;;;3.15;;
38557;SDS011;24333;42.626;23.308;2022-08-02T04:15:14;5.32;;;2.95;;
38557;SDS011;24333;42.626;23.308;2022-08-02T04:17:42;7.47;;;3.28;;
38557;SDS011;24333;42.626;23.308;2022-08-02T05:12:24;6.03;;;2.72;;
38557;SDS011;24333;42.626;23.308;2022-08-02T05:14:50;3.53;;;2.45;;
38557;SDS011;24333;42.626;23.308;2022-08-02T05:17:26;2.63;;;2.20;;
38557;SDS011;24333;42.626;23.308;2022-08-02T05:25:59;10.10;;;2.45;;
38557;SDS011;24333;42.626;23.308;2022-08-02T05:28:24;8.52;;;2.42;;
38557;SDS011;24333;42.626;23.308;2022-08-02T05:30:51;5.07;;;2.45;;
38557;SDS011;24333;42.626;23.308;2022-08-02T05:33:16;12.32;;;2.72;;
38557;SDS011;24333;42.626;23.308;2022-08-02T05:35:42;8.88;;;3.20;;
38557;SDS011;24333;42.626;23.308;2022-08-02T05:38:07;14.20;;;3.20;;
38557;SDS011;24333;42.626;23.308;2022-08-02T06:14:11;3.50;;;1.48;;
38557;SDS011;24333;42.626;23.308;2022-08-02T06:16:40;3.08;;;1.55;;
38557;SDS011;24333;42.626;23.308;2022-08-02T06:19:10;3.88;;;1.52;;
38557;SDS011;24333;42.626;23.308;2022-08-02T06:21:40;2.20;;;1.60;;
38557;SDS011;24333;42.626;23.308;2022-08-02T06:24:08;2.45;;;1.48;;
38557;SDS011;24333;42.626;23.308;2022-08-02T06:26:35;2.65;;;1.45;;
38557;SDS011;24333;42.626;23.308;2022-08-02T07:00:04;2.55;;;1.40;;
38557;SDS011;24333;42.626;23.308;2022-08-02T07:02:35;2.17;;;1.40;;
38557;SDS011;24333;42.626;23.308;2022-08-02T07:05:02;4.32;;;1.38;;
38557;SDS011;24333;42.626;23.308;2022-08-02T07:07:28;2.75;;;1.50;;
38557;SDS011;24333;42.626;23.308;2022-08-02T07:10:01;1.75;;;1.48;;
38557;SDS011;24333;42.626;23.308;2022-08-02T07:12:28;5.22;;;1.70;;
38557;SDS011;24333;42.626;23.308;2022-08-02T07:14:57;2.38;;;1.45;;
38557;SDS011;24333;42.626;23.308;2022-08-02T07:17:27;1.70;;;1.40;;
38557;SDS011;24333;42.626;23.308;2022-08-02T07:19:56;1.65;;;1.45;;
38557;SDS011;24333;42.626;23.308;2022-08-02T07:22:24;3.88;;;1.70;;
38557;SDS011;24333;42.626;23.308;2022-08-02T07:25:04;4.63;;;1.52;;
38557;SDS011;24333;42.626;23.308;2022-08-02T07:27:55;2.20;;;1.48;;
38557;SDS011;24333;42.626;23.308;2022-08-02T07:30:21;2.22;;;1.70;;
38557;SDS011;24333;42.626;23.308;2022-08-02T07:32:50;5.55;;;1.67;;
38557;SDS011;24333;42.626;23.308;2022-08-02T07:35:18;2.63;;;1.40;;
38557;SDS011;24333;42.626;23.308;2022-08-02T09:01:50;2.20;;;1.30;;
38557;SDS011;24333;42.626;23.308;2022-08-02T09:04:18;2.60;;;1.20;;
38557;SDS011;24333;42.626;23.308;2022-08-02T09:06:44;1.98;;;1.35;;
38557;SDS011;24333;42.626;23.308;2022-08-02T09:09:09;1.45;;;1.23;;
38557;SDS011;24333;42.626;23.308;2022-08-02T09:11:35;1.17;;;1.08;;
38557;SDS011;24333;42.626;23.308;2022-08-02T09:17:07;2.45;;;1.63;;
38557;SDS011;24333;42.626;23.308;2022-08-02T09:19:36;6.15;;;2.05;;
38557;SDS011;24333;42.626;23.308;2022-08-02T09:22:06;7.95;;;3.28;;
38557;SDS011;24333;42.626;23.308;2022-08-02T10:30:01;1.92;;;1.10;;
38557;SDS011;24333;42.626;23.308;2022-08-02T10:32:40;4.18;;;0.98;;
38557;SDS011;24333;42.626;23.308;2022-08-02T10:35:10;2.33;;;1.25;;
38557;SDS011;24333;42.626;23.308;2022-08-02T10:37:39;1.48;;;1.25;;
38557;SDS011;24333;42.626;23.308;2022-08-02T10:40:06;2.38;;;1.10;;
38557;SDS011;24333;42.626;23.308;2022-08-02T10:42:51;3.42;;;1.13;;
38557;SDS011;24333;42.626;23.308;2022-08-02T10:45:19;3.15;;;1.20;;
38557;SDS011;24333;42.626;23.308;2022-08-02T10:55:48;4.70;;;1.70;;
38557;SDS011;24333;42.626;23.308;2022-08-02T10:58:20;4.78;;;1.40;;
38557;SDS011;24333;42.626;23.308;2022-08-02T11:00:48;2.85;;;1.30;;
38557;SDS011;24333;42.626;23.308;2022-08-02T11:06:04;2.22;;;1.27;;
38557;SDS011;24333;42.626;23.308;2022-08-02T11:08:39;1.95;;;1.17;;
38557;SDS011;24333;42.626;23.308;2022-08-02T11:14:18;1.65;;;1.10;;
38557;SDS011;24333;42.626;23.308;2022-08-02T11:19:24;1.60;;;1.20;;
38557;SDS011;24333;42.626;23.308;2022-08-02T11:24:33;6.22;;;3.28;;
38557;SDS011;24333;42.626;23.308;2022-08-02T11:27:01;4.18;;;1.20;;
38557;SDS011;24333;42.626;23.308;2022-08-02T11:29:38;4.30;;;1.38;;
38557;SDS011;24333;42.626;23.308;2022-08-02T11:32:19;6.60;;;1.10;;
38557;SDS011;24333;42.626;23.308;2022-08-02T11:34:48;5.35;;;1.10;;
38557;SDS011;24333;42.626;23.308;2022-08-02T11:37:31;4.68;;;1.30;;
38557;SDS011;24333;42.626;23.308;2022-08-02T11:40:00;1.98;;;1.25;;
38557;SDS011;24333;42.626;23.308;2022-08-02T11:42:37;1.63;;;1.23;;
38557;SDS011;24333;42.626;23.308;2022-08-02T11:45:04;3.70;;;1.40;;
38557;SDS011;24333;42.626;23.308;2022-08-02T11:47:32;1.67;;;1.20;;
38557;SDS011;24333;42.626;23.308;2022-08-02T11:50:04;1.83;;;1.30;;
38557;SDS011;24333;42.626;23.308;2022-08-02T11:52:31;3.20;;;1.02;;
38557;SDS011;24333;42.626;23.308;2022-08-02T11:54:57;0.90;;;0.80;;
38557;SDS011;24333;42.626;23.308;2022-08-02T11:57:23;2.60;;;1.25;;
38557;SDS011;24333;42.626;23.308;2022-08-02T11:59:49;1.17;;;0.98;;
38557;SDS011;24333;42.626;23.308;2022-08-02T12:02:18;1.45;;;1.00;;
38557;SDS011;24333;42.626;23.308;2022-08-02T12:04:58;1.50;;;1.10;;
38557;SDS011;24333;42.626;23.308;2022-08-02T12:07:32;1.27;;;1.13;;
38557;SDS011;24333;42.626;23.308;2022-08-02T12:10:00;1.77;;;1.30;;
38557;SDS011;24333;42.626;23.308;2022-08-02T12:28:18;5.18;;;1.80;;
38557;SDS011;24333;42.626;23.308;2022-08-02T12:30:53;2.17;;;1.48;;
38557;SDS011;24333;42.626;23.308;2022-08-02T12:33:22;1.55;;;1.20;;
38557;SDS011;24333;42.626;23.308;2022-08-02T12:35:48;4.85;;;1.00;;
38557;SDS011;24333;42.626;23.308;2022-08-02T12:38:14;2.42;;;1.40;;
38557;SDS011;24333;42.626;23.308;2022-08-02T12:40:40;2.42;;;1.23;;
38557;SDS011;24333;42.626;23.308;2022-08-02T12:43:06;3.67;;;1.13;;
38557;SDS011;24333;42.626;23.308;2022-08-02T12:45:44;1.35;;;0.95;;
38557;SDS011;24333;42.626;23.308;2022-08-02T12:48:15;1.20;;;0.90;;
38557;SDS011;24333;42.626;23.308;2022-08-02T12:50:42;2.05;;;1.20;;
38557;SDS011;24333;42.626;23.308;2022-08-02T12:55:48;1.80;;;0.90;;
38557;SDS011;24333;42.626;23.308;2022-08-02T12:58:23;1.33;;;1.00;;
38557;SDS011;24333;42.626;23.308;2022-08-02T13:00:53;2.13;;;1.48;;
38557;SDS011;24333;42.626;23.308;2022-08-02T13:03:20;2.55;;;1.00;;
38557;SDS011;24333;42.626;23.308;2022-08-02T13:05:48;7.65;;;1.10;;
38557;SDS011;24333;42.626;23.308;2022-08-02T13:08:13;2.28;;;1.25;;
38557;SDS011;24333;42.626;23.308;2022-08-02T13:10:39;2.35;;;1.00;;
38557;SDS011;24333;42.626;23.308;2022-08-02T13:13:05;2.00;;;0.95;;
38557;SDS011;24333;42.626;23.308;2022-08-02T13:15:31;2.72;;;1.20;;
38557;SDS011;24333;42.626;23.308;2022-08-02T13:17:56;1.33;;;1.00;;
38557;SDS011;24333;42.626;23.308;2022-08-02T13:20:23;3.50;;;1.00;;
38557;SDS011;24333;42.626;23.308;2022-08-02T13:22:51;2.70;;;1.23;;
38557;SDS011;24333;42.626;23.308;2022-08-02T13:25:17;3.05;;;1.08;;
38557;SDS011;24333;42.626;23.308;2022-08-02T13:27:46;5.82;;;1.05;;
38557;SDS011;24333;42.626;23.308;2022-08-02T13:30:12;1.17;;;1.00;;
38557;SDS011;24333;42.626;23.308;2022-08-02T13:32:38;1.63;;;1.10;;
38557;SDS011;24333;42.626;23.308;2022-08-02T13:35:03;2.33;;;1.42;;
38557;SDS011;24333;42.626;23.308;2022-08-02T13:37:29;1.05;;;0.88;;
38557;SDS011;24333;42.626;23.308;2022-08-02T13:39:55;1.48;;;1.10;;
38557;SDS011;24333;42.626;23.308;2022-08-02T13:42:20;1.77;;;0.90;;
38557;SDS011;24333;42.626;23.308;2022-08-02T13:44:47;0.80;;;0.80;;
38557;SDS011;24333;42.626;23.308;2022-08-02T13:47:12;3.92;;;1.10;;
38557;SDS011;24333;42.626;23.308;2022-08-02T13:49:38;1.13;;;0.85;;
38557;SDS011;24333;42.626;23.308;2022-08-02T13:52:04;3.45;;;0.93;;
38557;SDS011;24333;42.626;23.308;2022-08-02T13:54:29;3.33;;;1.08;;
38557;SDS011;24333;42.626;23.308;2022-08-02T13:56:55;1.40;;;1.13;;
38557;SDS011;24333;42.626;23.308;2022-08-02T13:59:20;6.82;;;1.40;;
38557;SDS011;24333;42.626;23.308;2022-08-02T14:01:46;6.00;;;1.20;;
38557;SDS011;24333;42.626;23.308;2022-08-02T14:04:11;2.05;;;1.55;;
38557;SDS011;24333;42.626;23.308;2022-08-02T14:06:37;3.65;;;1.70;;
38557;SDS011;24333;42.626;23.308;2022-08-02T14:09:02;3.45;;;1.02;;
38557;SDS011;24333;42.626;23.308;2022-08-02T14:11:28;3.85;;;1.33;;
38557;SDS011;24333;42.626;23.308;2022-08-02T14:13:55;1.50;;;1.00;;
38557;SDS011;24333;42.626;23.308;2022-08-02T14:16:20;1.73;;;0.90;;
38557;SDS011;24333;42.626;23.308;2022-08-02T14:18:46;2.25;;;0.90;;
38557;SDS011;24333;42.626;23.308;2022-08-02T14:21:11;0.82;;;0.70;;
38557;SDS011;24333;42.626;23.308;2022-08-02T14:23:36;1.95;;;0.73;;
38557;SDS011;24333;42.626;23.308;2022-08-02T14:26:02;2.08;;;1.08;;
38557;SDS011;24333;42.626;23.308;2022-08-02T14:28:29;2.25;;;0.82;;
38557;SDS011;24333;42.626;23.308;2022-08-02T14:30:54;1.52;;;1.00;;
38557;SDS011;24333;42.626;23.308;2022-08-02T14:33:20;1.20;;;0.75;;
38557;SDS011;24333;42.626;23.308;2022-08-02T14:35:45;2.38;;;1.08;;
38557;SDS011;24333;42.626;23.308;2022-08-02T14:38:11;2.05;;;0.90;;
38557;SDS011;24333;42.626;23.308;2022-08-02T14:40:36;2.33;;;1.20;;
38557;SDS011;24333;42.626;23.308;2022-08-02T14:43:02;3.47;;;1.23;;
38557;SDS011;24333;42.626;23.308;2022-08-02T14:45:28;1.20;;;0.90;;
38557;SDS011;24333;42.626;23.308;2022-08-02T14:47:54;1.98;;;0.90;;
38557;SDS011;24333;42.626;23.308;2022-08-02T14:50:21;2.97;;;0.98;;
38557;SDS011;24333;42.626;23.308;2022-08-02T14:52:47;4.57;;;1.00;;
38557;SDS011;24333;42.626;23.308;2022-08-02T14:55:14;1.23;;;0.93;;
38557;SDS011;24333;42.626;23.308;2022-08-02T14:57:40;1.13;;;0.90;;
38557;SDS011;24333;42.626;23.308;2022-08-02T15:00:07;2.28;;;0.90;;
38557;SDS011;24333;42.626;23.308;2022-08-02T15:02:33;1.02;;;0.85;;
38557;SDS011;24333;42.626;23.308;2022-08-02T15:05:00;1.70;;;1.15;;
38557;SDS011;24333;42.626;23.308;2022-08-02T15:07:25;3.05;;;0.90;;
38557;SDS011;24333;42.626;23.308;2022-08-02T15:09:51;2.08;;;0.90;;
38557;SDS011;24333;42.626;23.308;2022-08-02T15:12:16;1.50;;;1.17;;
38557;SDS011;24333;42.626;23.308;2022-08-02T15:14:42;1.20;;;1.02;;
38557;SDS011;24333;42.626;23.308;2022-08-02T15:17:08;5.28;;;1.17;;
38557;SDS011;24333;42.626;23.308;2022-08-02T15:19:34;4.82;;;1.48;;
38557;SDS011;24333;42.626;23.308;2022-08-02T15:21:59;3.42;;;1.30;;
38557;SDS011;24333;42.626;23.308;2022-08-02T15:24:25;3.30;;;1.42;;
38557;SDS011;24333;42.626;23.308;2022-08-02T15:26:51;5.93;;;1.08;;
38557;SDS011;24333;42.626;23.308;2022-08-02T15:29:17;5.38;;;2.08;;
38557;SDS011;24333;42.626;23.308;2022-08-02T15:31:43;4.43;;;2.10;;
38557;SDS011;24333;42.626;23.308;2022-08-02T15:34:08;4.43;;;2.38;;
38557;SDS011;24333;42.626;23.308;2022-08-02T15:36:34;4.82;;;2.03;;
38557;SDS011;24333;42.626;23.308;2022-08-02T15:38:59;4.90;;;1.85;;
38557;SDS011;24333;42.626;23.308;2022-08-02T15:41:25;9.73;;;1.50;;
38557;SDS011;24333;42.626;23.308;2022-08-02T15:43:50;9.30;;;2.17;;
38557;SDS011;24333;42.626;23.308;2022-08-02T15:46:16;6.38;;;4.38;;
38557;SDS011;24333;42.626;23.308;2022-08-02T15:48:41;7.43;;;4.13;;
38557;SDS011;24333;42.626;23.308;2022-08-02T15:51:06;9.60;;;5.28;;
38557;SDS011;24333;42.626;23.308;2022-08-02T15:53:32;10.43;;;7.00;;
38557;SDS011;24333;42.626;23.308;2022-08-02T15:55:57;9.13;;;6.03;;
38557;SDS011;24333;42.626;23.308;2022-08-02T15:58:23;5.70;;;3.95;;
38557;SDS011;24333;42.626;23.308;2022-08-02T16:00:48;5.65;;;3.45;;
38557;SDS011;24333;42.626;23.308;2022-08-02T16:03:14;5.95;;;4.00;;
38557;SDS011;24333;42.626;23.308;2022-08-02T16:05:39;13.82;;;5.00;;
38557;SDS011;24333;42.626;23.308;2022-08-02T16:08:05;9.65;;;2.13;;
38557;SDS011;24333;42.626;23.308;2022-08-02T16:10:30;4.95;;;2.35;;
38557;SDS011;24333;42.626;23.308;2022-08-02T16:12:57;7.43;;;2.15;;
38557;SDS011;24333;42.626;23.308;2022-08-02T16:15:42;1.77;;;1.27;;
38557;SDS011;24333;42.626;23.308;2022-08-02T16:18:08;4.03;;;1.95;;
38557;SDS011;24333;42.626;23.308;2022-08-02T16:20:33;4.32;;;3.22;;
38557;SDS011;24333;42.626;23.308;2022-08-02T16:23:14;9.20;;;2.88;;
38557;SDS011;24333;42.626;23.308;2022-08-02T16:28:27;2.25;;;1.70;;
38557;SDS011;24333;42.626;23.308;2022-08-02T16:30:52;4.43;;;1.90;;
38557;SDS011;24333;42.626;23.308;2022-08-02T16:33:18;4.80;;;2.08;;
38557;SDS011;24333;42.626;23.308;2022-08-02T16:35:43;6.53;;;2.40;;
38557;SDS011;24333;42.626;23.308;2022-08-02T16:38:09;3.85;;;2.00;;
38557;SDS011;24333;42.626;23.308;2022-08-02T16:40:35;2.08;;;1.80;;
38557;SDS011;24333;42.626;23.308;2022-08-02T16:43:06;3.15;;;2.10;;
38557;SDS011;24333;42.626;23.308;2022-08-02T16:45:34;9.10;;;2.10;;
38557;SDS011;24333;42.626;23.308;2022-08-02T16:47:59;5.53;;;1.80;;
38557;SDS011;24333;42.626;23.308;2022-08-02T16:50:25;8.82;;;1.95;;
38557;SDS011;24333;42.626;23.308;2022-08-02T16:53:04;3.58;;;1.63;;
38557;SDS011;24333;42.626;23.308;2022-08-02T16:55:45;5.35;;;2.28;;
38557;SDS011;24333;42.626;23.308;2022-08-02T16:58:12;8.57;;;2.13;;
38557;SDS011;24333;42.626;23.308;2022-08-02T17:00:38;7.18;;;4.60;;
38557;SDS011;24333;42.626;23.308;2022-08-02T17:03:03;6.80;;;4.32;;
38557;SDS011;24333;42.626;23.308;2022-08-02T17:05:30;6.72;;;4.97;;
38557;SDS011;24333;42.626;23.308;2022-08-02T17:07:56;7.63;;;4.50;;
38557;SDS011;24333;42.626;23.308;2022-08-02T17:10:23;8.27;;;5.10;;
38557;SDS011;24333;42.626;23.308;2022-08-02T17:12:50;6.40;;;3.72;;
38557;SDS011;24333;42.626;23.308;2022-08-02T17:15:16;9.77;;;3.60;;
38557;SDS011;24333;42.626;23.308;2022-08-02T17:17:41;6.25;;;3.88;;
38557;SDS011;24333;42.626;23.308;2022-08-02T17:20:07;5.65;;;2.65;;
38557;SDS011;24333;42.626;23.308;2022-08-02T17:22:33;3.05;;;2.03;;
38557;SDS011;24333;42.626;23.308;2022-08-02T17:24:58;5.60;;;2.10;;
38557;SDS011;24333;42.626;23.308;2022-08-02T17:27:24;10.95;;;2.63;;
38557;SDS011;24333;42.626;23.308;2022-08-02T17:29:49;5.13;;;2.65;;
38557;SDS011;24333;42.626;23.308;2022-08-02T17:32:15;3.70;;;2.17;;
38557;SDS011;24333;42.626;23.308;2022-08-02T17:34:41;2.45;;;1.85;;
38557;SDS011;24333;42.626;23.308;2022-08-02T17:37:06;2.28;;;1.67;;
38557;SDS011;24333;42.626;23.308;2022-08-02T17:39:33;10.30;;;2.30;;
38557;SDS011;24333;42.626;23.308;2022-08-02T17:41:59;8.30;;;2.72;;
38557;SDS011;24333;42.626;23.308;2022-08-02T17:44:25;5.22;;;2.50;;
38557;SDS011;24333;42.626;23.308;2022-08-02T17:46:51;6.15;;;2.47;;
38557;SDS011;24333;42.626;23.308;2022-08-02T17:49:16;5.57;;;2.78;;
38557;SDS011;24333;42.626;23.308;2022-08-02T17:51:45;3.58;;;2.15;;
38557;SDS011;24333;42.626;23.308;2022-08-02T17:54:12;8.45;;;3.20;;
38557;SDS011;24333;42.626;23.308;2022-08-02T17:56:39;4.88;;;3.50;;
38557;SDS011;24333;42.626;23.308;2022-08-02T18:02:10;8.30;;;3.28;;
38557;SDS011;24333;42.626;23.308;2022-08-02T18:04:35;5.32;;;3.30;;
38557;SDS011;24333;42.626;23.308;2022-08-02T18:07:02;5.55;;;3.58;;
38557;SDS011;24333;42.626;23.308;2022-08-02T18:09:28;7.32;;;3.60;;
38557;SDS011;24333;42.626;23.308;2022-08-02T18:11:55;7.95;;;5.05;;
38557;SDS011;24333;42.626;23.308;2022-08-02T18:14:21;11.77;;;6.28;;
38557;SDS011;24333;42.626;23.308;2022-08-02T18:16:47;8.77;;;5.75;;
38557;SDS011;24333;42.626;23.308;2022-08-02T18:19:14;7.35;;;5.18;;
38557;SDS011;24333;42.626;23.308;2022-08-02T18:21:40;7.45;;;4.72;;
38557;SDS011;24333;42.626;23.308;2022-08-02T18:24:06;8.40;;;4.40;;
38557;SDS011;24333;42.626;23.308;2022-08-02T18:26:32;11.35;;;4.47;;
38557;SDS011;24333;42.626;23.308;2022-08-02T18:28:59;8.52;;;4.20;;
38557;SDS011;24333;42.626;23.308;2022-08-02T18:31:28;7.88;;;4.50;;
38557;SDS011;24333;42.626;23.308;2022-08-02T18:33:54;9.75;;;5.40;;
38557;SDS011;24333;42.626;23.308;2022-08-02T18:36:19;13.23;;;5.97;;
38557;SDS011;24333;42.626;23.308;2022-08-02T18:38:44;8.75;;;5.65;;
38557;SDS011;24333;42.626;23.308;2022-08-02T18:41:10;8.70;;;4.70;;
38557;SDS011;24333;42.626;23.308;2022-08-02T18:48:59;8.40;;;2.78;;
38557;SDS011;24333;42.626;23.308;2022-08-02T18:51:24;5.00;;;3.72;;
38557;SDS011;24333;42.626;23.308;2022-08-02T21:27:41;1.75;;;0.80;;
38557;SDS011;24333;42.626;23.308;2022-08-02T21:30:19;0.90;;;0.80;;
38557;SDS011;24333;42.626;23.308;2022-08-02T21:32:57;1.30;;;0.68;;
